createdAt,value
2017-10-05T00:02:21.427Z,87.20
2017-10-05T00:04:49.507Z,87.30
2017-10-05T00:07:17.641Z,88.30
2017-10-05T00:09:45.920Z,88.10
2017-10-05T00:12:14.271Z,87.30
2017-10-05T00:14:43.195Z,88.20
2017-10-05T00:17:11.284Z,88.20
2017-10-05T00:19:39.415Z,87.80
2017-10-05T00:22:07.667Z,87.70
2017-10-05T00:24:35.782Z,89.00
2017-10-05T00:27:03.875Z,87.40
2017-10-05T00:29:31.977Z,87.00
2017-10-05T00:32:00.073Z,87.10
2017-10-05T00:34:28.919Z,87.70
2017-10-05T00:36:58.146Z,87.70
2017-10-05T00:39:26.288Z,87.60
2017-10-05T00:41:54.437Z,87.00
2017-10-05T00:44:22.518Z,86.40
2017-10-05T00:46:50.896Z,88.00
2017-10-05T00:49:18.988Z,86.70
2017-10-05T00:51:47.100Z,86.80
2017-10-05T00:54:15.217Z,86.70
2017-10-05T00:56:43.320Z,86.50
2017-10-05T00:59:11.406Z,86.60
2017-10-05T01:01:39.482Z,85.70
2017-10-05T01:04:07.599Z,86.00
2017-10-05T01:06:35.682Z,86.30
2017-10-05T01:09:04.718Z,86.30
2017-10-05T01:11:32.973Z,85.60
2017-10-05T01:14:01.301Z,85.70
2017-10-05T01:16:29.414Z,85.40
2017-10-05T01:18:57.528Z,86.30
2017-10-05T01:21:25.640Z,87.20
2017-10-05T01:23:53.760Z,86.50
2017-10-05T01:26:22.103Z,87.20
2017-10-05T01:28:50.226Z,87.70
2017-10-05T01:31:19.076Z,88.50
2017-10-05T01:33:47.199Z,88.40
2017-10-05T01:36:15.283Z,88.00
2017-10-05T01:38:45.001Z,88.30
2017-10-05T01:41:13.084Z,89.80
2017-10-05T01:43:41.247Z,90.00
2017-10-05T01:46:09.324Z,90.30
2017-10-05T01:48:37.434Z,89.90
2017-10-05T01:51:06.097Z,89.40
2017-10-05T01:53:34.629Z,89.10
2017-10-05T01:56:04.283Z,89.40
2017-10-05T01:58:32.391Z,89.30
2017-10-05T02:01:00.506Z,89.10
2017-10-05T02:03:28.613Z,88.60
2017-10-05T02:05:56.704Z,89.20
2017-10-05T02:08:24.814Z,88.70
2017-10-05T02:10:53.279Z,89.00
2017-10-05T02:13:21.388Z,88.40
2017-10-05T02:15:49.479Z,88.20
2017-10-05T02:18:17.553Z,88.40
2017-10-05T02:20:45.671Z,88.60
2017-10-05T02:23:13.796Z,88.10
2017-10-05T02:25:41.905Z,87.90
2017-10-05T02:28:10.798Z,89.40
2017-10-05T02:30:38.884Z,88.70
2017-10-05T02:33:07.023Z,88.20
2017-10-05T02:35:35.115Z,87.80
2017-10-05T02:38:03.220Z,88.30
2017-10-05T02:40:31.311Z,88.10
2017-10-05T02:42:59.387Z,88.50
2017-10-05T02:45:28.328Z,88.50
2017-10-05T02:47:56.673Z,88.20
2017-10-05T02:50:24.760Z,88.30
2017-10-05T02:52:52.870Z,88.60
2017-10-05T02:55:21.147Z,88.30
2017-10-05T02:57:49.249Z,88.40
2017-10-05T03:00:17.763Z,88.40
2017-10-05T03:02:45.840Z,87.90
2017-10-05T03:05:13.930Z,88.50
2017-10-05T03:07:42.796Z,88.00
2017-10-05T03:10:11.402Z,88.00
2017-10-05T03:12:39.504Z,88.20
2017-10-05T03:15:07.620Z,88.60
2017-10-05T03:17:35.722Z,88.40
2017-10-05T03:20:03.806Z,88.10
2017-10-05T03:22:33.256Z,88.30
2017-10-05T03:25:02.384Z,88.50
2017-10-05T03:27:31.249Z,87.90
2017-10-05T03:29:59.362Z,87.90
2017-10-05T03:32:27.458Z,87.90
2017-10-05T03:34:55.568Z,88.10
2017-10-05T03:37:23.663Z,87.70
2017-10-05T03:39:51.778Z,87.10
2017-10-05T03:42:19.868Z,87.80
2017-10-05T03:44:47.972Z,87.90
2017-10-05T03:47:16.530Z,88.00
2017-10-05T03:49:44.962Z,87.60
2017-10-05T03:52:13.972Z,87.60
2017-10-05T03:54:42.104Z,87.70
2017-10-05T03:57:10.219Z,88.40
2017-10-05T03:59:38.318Z,88.20
2017-10-05T04:02:06.452Z,88.60
2017-10-05T04:04:34.564Z,88.50
2017-10-05T04:07:02.647Z,88.70
2017-10-05T04:09:30.733Z,88.50
2017-10-05T04:11:58.851Z,88.40
2017-10-05T04:14:28.671Z,87.90
2017-10-05T04:16:56.769Z,87.80
2017-10-05T04:19:24.852Z,88.50
2017-10-05T04:21:53.877Z,88.40
2017-10-05T04:24:22.882Z,88.80
2017-10-05T04:26:51.732Z,88.80
2017-10-05T04:29:19.831Z,88.70
2017-10-05T04:31:48.679Z,88.40
2017-10-05T04:34:16.784Z,88.40
2017-10-05T04:36:44.901Z,88.70
2017-10-05T04:39:13.929Z,90.30
2017-10-05T04:41:42.003Z,90.30
2017-10-05T04:44:10.121Z,90.70
2017-10-05T04:46:38.991Z,91.60
2017-10-05T04:49:07.143Z,91.60
2017-10-05T04:51:35.773Z,92.30
2017-10-05T04:54:03.900Z,92.70
2017-10-05T04:56:31.997Z,93.10
2017-10-05T04:59:01.928Z,93.60
2017-10-05T05:01:30.780Z,93.70
2017-10-05T05:03:58.884Z,94.00
2017-10-05T05:06:28.250Z,94.00
2017-10-05T05:08:57.319Z,94.00
2017-10-05T05:11:26.803Z,93.80
2017-10-05T05:13:54.891Z,94.00
2017-10-05T05:16:23.770Z,94.30
2017-10-05T05:18:51.858Z,94.20
2017-10-05T05:21:19.987Z,94.90
2017-10-05T05:23:48.852Z,95.10
2017-10-05T05:26:16.953Z,95.10
2017-10-05T05:28:45.832Z,95.70
2017-10-05T05:31:14.140Z,95.70
2017-10-05T05:33:42.268Z,95.90
2017-10-05T05:36:10.347Z,96.00
2017-10-05T05:38:38.499Z,95.80
2017-10-05T05:41:07.571Z,96.10
2017-10-05T05:43:35.691Z,96.20
2017-10-05T05:46:03.827Z,96.40
2017-10-05T05:48:31.940Z,96.10
2017-10-05T05:51:01.141Z,96.50
2017-10-05T05:53:29.260Z,96.10
2017-10-05T05:55:57.380Z,96.50
2017-10-05T05:58:26.527Z,96.90
2017-10-05T06:00:54.621Z,96.70
2017-10-05T06:03:22.720Z,96.80
2017-10-05T06:05:50.813Z,96.50
2017-10-05T06:08:18.909Z,96.60
2017-10-05T06:10:47.039Z,96.30
2017-10-05T06:13:15.122Z,96.20
2017-10-05T06:15:43.999Z,96.10
2017-10-05T06:18:12.088Z,96.10
2017-10-05T06:20:40.959Z,96.40
2017-10-05T06:23:09.307Z,96.40
2017-10-05T06:25:37.534Z,96.30
2017-10-05T06:28:05.648Z,96.40
2017-10-05T06:30:33.758Z,96.30
2017-10-05T06:33:01.877Z,96.30
2017-10-05T06:35:29.972Z,96.20
2017-10-05T06:37:58.091Z,96.30
2017-10-05T06:40:26.946Z,96.50
2017-10-05T06:42:55.044Z,96.50
2017-10-05T06:45:23.931Z,96.50
2017-10-05T06:47:52.418Z,96.50
2017-10-05T06:50:20.508Z,96.40
2017-10-05T06:52:48.592Z,96.30
2017-10-05T06:55:16.696Z,96.20
2017-10-05T06:57:45.496Z,96.10
2017-10-05T07:00:13.759Z,96.20
2017-10-05T07:02:41.879Z,96.20
2017-10-05T07:05:10.766Z,96.00
2017-10-05T07:07:39.192Z,96.00
2017-10-05T07:10:07.305Z,96.10
2017-10-05T07:12:35.516Z,96.10
2017-10-05T07:15:04.368Z,96.20
2017-10-05T07:17:32.492Z,96.20
2017-10-05T07:20:00.880Z,96.10
2017-10-05T07:22:28.993Z,96.40
2017-10-05T07:24:57.082Z,96.30
2017-10-05T07:27:25.444Z,96.40
2017-10-05T07:29:53.531Z,96.50
2017-10-05T07:32:21.646Z,96.90
2017-10-05T07:34:49.751Z,97.00
2017-10-05T07:37:17.878Z,97.00
2017-10-05T07:39:46.378Z,97.20
2017-10-05T07:42:14.462Z,97.20
2017-10-05T07:44:42.575Z,97.20
2017-10-05T07:47:10.650Z,97.40
2017-10-05T07:49:39.611Z,97.60
2017-10-05T07:52:07.865Z,97.60
2017-10-05T07:54:36.158Z,97.70
2017-10-05T07:57:04.307Z,97.80
2017-10-05T07:59:33.359Z,97.70
2017-10-05T08:02:01.476Z,97.90
2017-10-05T08:04:29.570Z,98.20
2017-10-05T08:06:57.699Z,98.10
2017-10-05T08:09:25.815Z,98.20
2017-10-05T08:11:53.895Z,98.30
2017-10-05T08:14:22.007Z,98.30
2017-10-05T08:16:50.102Z,98.40
2017-10-05T08:19:18.303Z,98.50
2017-10-05T08:21:46.427Z,98.60
2017-10-05T08:24:14.552Z,98.60
2017-10-05T08:26:42.748Z,98.60
2017-10-05T08:29:11.072Z,98.60
2017-10-05T08:31:39.171Z,98.60
2017-10-05T08:34:07.276Z,98.60
2017-10-05T08:36:35.370Z,98.60
2017-10-05T08:39:03.556Z,98.60
2017-10-05T08:41:31.639Z,98.60
2017-10-05T08:43:59.732Z,98.60
2017-10-05T08:46:27.839Z,98.80
2017-10-05T08:48:55.946Z,98.70
2017-10-05T08:51:24.130Z,98.70
2017-10-05T08:53:52.272Z,98.80
2017-10-05T08:56:21.132Z,99.20
2017-10-05T08:58:49.235Z,98.80
2017-10-05T09:01:17.732Z,98.80
2017-10-05T09:03:46.591Z,98.80
2017-10-05T09:06:14.691Z,98.80
2017-10-05T09:08:42.955Z,98.80
2017-10-05T09:11:11.040Z,98.90
2017-10-05T09:13:39.900Z,99.00
2017-10-05T09:16:07.991Z,99.00
2017-10-05T09:18:37.026Z,99.00
2017-10-05T09:21:05.132Z,99.00
2017-10-05T09:23:33.207Z,99.00
2017-10-05T09:26:01.339Z,99.00
2017-10-05T09:28:29.419Z,98.90
2017-10-05T09:30:57.748Z,98.90
2017-10-05T09:33:26.068Z,98.80
2017-10-05T09:35:54.134Z,98.80
2017-10-05T09:38:22.235Z,98.80
2017-10-05T09:40:50.319Z,98.80
2017-10-05T09:43:18.440Z,98.80
2017-10-05T09:45:46.531Z,98.90
2017-10-05T09:48:14.608Z,98.80
2017-10-05T09:50:42.702Z,98.80
2017-10-05T09:53:10.875Z,98.70
2017-10-05T09:55:40.147Z,98.70
2017-10-05T09:58:08.248Z,98.80
2017-10-05T10:00:36.329Z,98.70
2017-10-05T10:03:04.429Z,98.70
2017-10-05T10:05:33.279Z,98.60
2017-10-05T10:08:01.379Z,98.60
2017-10-05T10:10:29.465Z,98.50
2017-10-05T10:12:58.199Z,98.30
2017-10-05T10:15:26.301Z,98.30
2017-10-05T10:17:54.763Z,98.30
2017-10-05T10:20:22.928Z,98.30
2017-10-05T10:22:51.981Z,98.30
2017-10-05T10:25:20.195Z,98.50
2017-10-05T10:27:48.460Z,98.50
2017-10-05T10:30:16.549Z,98.60
2017-10-05T10:32:44.682Z,98.70
2017-10-05T10:35:13.340Z,96.50
2017-10-05T10:37:41.423Z,96.70
2017-10-05T10:40:09.592Z,96.60
2017-10-05T10:42:37.721Z,95.20
2017-10-05T10:45:06.192Z,94.80
2017-10-05T10:47:34.323Z,94.30
2017-10-05T10:50:02.653Z,94.30
2017-10-05T10:52:30.918Z,94.60
2017-10-05T10:54:59.044Z,93.80
2017-10-05T10:57:27.151Z,93.70
2017-10-05T10:59:55.255Z,93.60
2017-10-05T11:02:23.375Z,93.70
2017-10-05T11:04:51.589Z,92.70
2017-10-05T11:07:20.929Z,93.50
2017-10-05T11:09:49.071Z,93.50
2017-10-05T11:12:17.224Z,93.70
2017-10-05T11:14:45.328Z,93.40
2017-10-05T11:17:13.419Z,91.70
2017-10-05T11:19:41.959Z,90.00
2017-10-05T11:22:10.648Z,87.60
2017-10-05T11:24:39.096Z,86.60
2017-10-05T11:27:07.958Z,85.50
2017-10-05T11:29:36.068Z,85.50
2017-10-05T11:32:05.572Z,84.30
2017-10-05T11:34:33.716Z,84.00
2017-10-05T11:37:01.880Z,83.20
2017-10-05T11:39:30.285Z,83.50
2017-10-05T11:41:58.413Z,85.90
2017-10-05T11:44:27.472Z,85.80
2017-10-05T11:46:56.522Z,86.40
2017-10-05T11:49:24.897Z,83.60
2017-10-05T11:51:53.062Z,81.70
2017-10-05T11:54:21.359Z,82.20
2017-10-05T11:56:49.502Z,80.60
2017-10-05T11:59:17.687Z,81.70
2017-10-05T12:01:45.824Z,81.50
2017-10-05T12:04:14.882Z,79.30
2017-10-05T12:06:43.819Z,79.00
2017-10-05T12:09:12.903Z,79.00
2017-10-05T12:11:41.375Z,80.00
2017-10-05T12:14:09.984Z,79.70
2017-10-05T12:16:38.097Z,80.30
2017-10-05T12:19:06.620Z,78.30
2017-10-05T12:21:36.172Z,75.90
2017-10-05T12:24:04.502Z,72.40
2017-10-05T12:26:33.665Z,73.60
2017-10-05T12:29:02.225Z,73.60
2017-10-05T12:31:30.683Z,72.00
2017-10-05T12:33:58.775Z,73.30
2017-10-05T12:36:27.807Z,71.80
2017-10-05T12:38:55.925Z,75.10
2017-10-05T12:41:24.020Z,80.10
2017-10-05T12:43:52.128Z,84.90
2017-10-05T12:46:21.008Z,85.90
2017-10-05T12:48:49.103Z,86.00
2017-10-05T12:51:18.120Z,87.40
2017-10-05T12:53:46.274Z,86.50
2017-10-05T12:56:15.576Z,85.10
2017-10-05T12:58:44.455Z,82.20
2017-10-05T13:01:14.208Z,68.80
2017-10-05T13:03:42.317Z,68.80
2017-10-05T13:06:10.545Z,66.10
2017-10-05T13:08:38.618Z,71.70
2017-10-05T13:11:06.794Z,76.70
2017-10-05T13:13:36.378Z,73.30
2017-10-05T13:16:04.772Z,73.20
2017-10-05T13:18:32.859Z,73.70
2017-10-05T13:21:01.400Z,76.70
2017-10-05T13:23:30.266Z,75.90
2017-10-05T13:25:59.271Z,75.90
2017-10-05T13:28:27.377Z,76.30
2017-10-05T13:30:55.566Z,74.30
2017-10-05T13:33:23.648Z,74.40
2017-10-05T13:35:51.771Z,75.40
2017-10-05T13:38:19.848Z,72.10
2017-10-05T13:40:48.720Z,73.70
2017-10-05T13:43:16.799Z,73.70
2017-10-05T13:45:45.063Z,73.00
2017-10-05T13:48:14.088Z,72.80
2017-10-05T13:50:42.287Z,73.30
2017-10-05T13:53:10.632Z,72.80
2017-10-05T13:55:38.727Z,71.40
2017-10-05T13:58:06.799Z,71.10
2017-10-05T14:00:36.792Z,72.10
2017-10-05T14:03:04.875Z,72.60
2017-10-05T14:05:33.751Z,67.00
2017-10-05T14:08:02.683Z,69.30
2017-10-05T14:10:30.764Z,68.60
2017-10-05T14:12:58.855Z,68.60
2017-10-05T14:15:26.943Z,69.50
2017-10-05T14:17:55.058Z,72.50
2017-10-05T14:20:23.168Z,70.30
2017-10-05T14:22:51.267Z,71.70
2017-10-05T14:25:19.503Z,71.60
2017-10-05T14:27:50.216Z,73.90
2017-10-05T14:30:18.305Z,76.40
2017-10-05T14:32:47.039Z,76.70
2017-10-05T14:35:17.583Z,80.70
2017-10-05T14:37:46.612Z,80.90
2017-10-05T14:40:14.889Z,80.90
2017-10-05T14:42:42.999Z,81.00
2017-10-05T14:45:12.725Z,82.40
2017-10-05T14:47:42.516Z,83.10
2017-10-05T14:50:12.909Z,83.10
2017-10-05T14:52:40.999Z,83.40
2017-10-05T14:55:09.935Z,80.40
2017-10-05T14:57:39.841Z,78.40
2017-10-05T15:00:08.743Z,75.70
2017-10-05T15:02:38.815Z,77.00
2017-10-05T15:05:06.900Z,76.90
2017-10-05T15:07:36.925Z,75.40
2017-10-05T15:10:05.168Z,75.10
2017-10-05T15:12:35.461Z,76.60
2017-10-05T15:15:03.580Z,76.50
2017-10-05T15:17:31.664Z,75.30
2017-10-05T15:19:59.789Z,73.80
2017-10-05T15:22:27.905Z,74.60
2017-10-05T15:24:57.315Z,74.60
2017-10-05T15:27:25.557Z,74.80
2017-10-05T15:29:57.067Z,76.10
2017-10-05T15:32:28.829Z,74.60
2017-10-05T15:35:00.705Z,75.30
2017-10-05T15:37:29.029Z,75.20
2017-10-05T15:40:14.345Z,76.00
2017-10-05T15:42:42.457Z,75.60
2017-10-05T15:45:10.644Z,75.80
2017-10-05T15:47:40.055Z,77.90
2017-10-05T15:50:08.375Z,77.10
2017-10-05T15:52:37.230Z,76.80
2017-10-05T15:55:05.344Z,76.80
2017-10-05T15:57:33.459Z,76.40
2017-10-05T16:00:03.285Z,76.60
2017-10-05T16:02:34.749Z,77.40
2017-10-05T16:05:05.792Z,76.50
2017-10-05T16:07:33.948Z,76.90
2017-10-05T16:10:02.183Z,77.50
2017-10-05T16:12:30.283Z,77.50
2017-10-05T16:15:00.182Z,78.60
2017-10-05T16:17:29.472Z,79.60
2017-10-05T16:19:59.364Z,83.20
2017-10-05T16:22:27.527Z,84.50
2017-10-05T16:24:55.633Z,86.60
2017-10-05T16:27:23.804Z,87.30
2017-10-05T16:29:52.000Z,90.10
2017-10-05T16:32:20.075Z,90.70
2017-10-05T16:34:48.697Z,91.40
2017-10-05T16:37:17.589Z,92.20
2017-10-05T16:39:45.681Z,92.30
2017-10-05T16:42:13.808Z,92.00
2017-10-05T16:44:41.949Z,92.20
2017-10-05T16:47:10.052Z,92.30
2017-10-05T16:49:38.151Z,91.80
2017-10-05T16:52:06.284Z,92.20
2017-10-05T16:54:34.377Z,91.90
2017-10-05T16:57:02.592Z,91.30
2017-10-05T16:59:30.764Z,91.70
2017-10-05T17:01:59.699Z,90.80
2017-10-05T17:04:28.036Z,90.70
2017-10-05T17:06:56.904Z,90.00
2017-10-05T17:09:25.056Z,90.10
2017-10-05T17:11:53.164Z,90.10
2017-10-05T17:14:21.379Z,90.00
2017-10-05T17:16:49.512Z,89.50
2017-10-05T17:19:18.761Z,89.90
2017-10-05T17:21:46.997Z,89.80
2017-10-05T17:24:15.164Z,90.20
2017-10-05T17:26:44.053Z,90.30
2017-10-05T17:29:12.972Z,89.60
2017-10-05T17:31:41.121Z,89.20
2017-10-05T17:34:09.320Z,90.00
2017-10-05T17:36:37.483Z,90.00
2017-10-05T17:39:05.716Z,89.30
2017-10-05T17:41:34.364Z,90.10
2017-10-05T17:44:02.477Z,89.60
2017-10-05T17:46:31.705Z,89.30
2017-10-05T17:49:01.649Z,88.60
2017-10-05T17:52:01.952Z,88.60
2017-10-05T17:54:30.265Z,88.90
2017-10-05T17:57:15.140Z,88.70
2017-10-05T17:59:43.278Z,88.80
2017-10-05T18:02:14.106Z,88.60
2017-10-05T18:05:02.255Z,88.50
2017-10-05T18:07:30.368Z,88.80
2017-10-05T18:09:58.482Z,89.20
2017-10-05T18:12:26.673Z,88.80
2017-10-05T18:14:55.847Z,88.40
2017-10-05T18:17:24.740Z,88.30
2017-10-05T18:19:53.645Z,89.00
2017-10-05T18:22:21.849Z,89.10
2017-10-05T18:24:49.992Z,88.80
2017-10-05T18:27:18.872Z,89.50
2017-10-05T18:29:47.914Z,88.40
2017-10-05T18:32:16.136Z,88.30
2017-10-05T18:34:44.565Z,88.40
2017-10-05T18:37:12.770Z,88.70
2017-10-05T18:39:41.220Z,88.20
2017-10-05T18:42:09.435Z,88.30
2017-10-05T18:44:37.600Z,87.60
2017-10-05T18:47:05.849Z,87.40
2017-10-05T18:49:35.036Z,87.00
2017-10-05T18:52:03.228Z,87.50
2017-10-05T18:54:32.124Z,86.60
2017-10-05T18:57:00.318Z,86.60
2017-10-05T18:59:28.539Z,85.50
2017-10-05T19:01:56.672Z,85.80
2017-10-05T19:04:24.806Z,85.60
2017-10-05T19:06:52.925Z,86.00
2017-10-05T19:09:21.159Z,86.80
2017-10-05T19:11:49.388Z,85.80
2017-10-05T19:14:17.494Z,85.70
2017-10-05T19:16:45.664Z,86.10
2017-10-05T19:19:13.777Z,86.10
2017-10-05T19:21:41.907Z,86.70
2017-10-05T19:24:11.126Z,86.20
2017-10-05T19:26:39.270Z,86.80
2017-10-05T19:29:08.273Z,87.60
2017-10-05T19:31:36.458Z,87.60
2017-10-05T19:34:05.619Z,88.10
2017-10-05T19:36:35.557Z,87.90
2017-10-05T19:39:03.682Z,87.90
2017-10-05T19:41:31.933Z,88.30
2017-10-05T19:44:00.122Z,88.30
2017-10-05T19:46:28.344Z,88.40
2017-10-05T19:48:56.446Z,89.40
2017-10-05T19:51:25.357Z,89.40
2017-10-05T19:53:53.487Z,89.40
2017-10-05T19:56:21.690Z,89.60
2017-10-05T19:58:50.025Z,89.30
2017-10-05T20:01:18.474Z,89.40
2017-10-05T20:03:46.619Z,89.20
2017-10-05T20:06:14.765Z,89.10
2017-10-05T20:08:43.805Z,89.40
2017-10-05T20:11:11.945Z,89.30
2017-10-05T20:13:52.010Z,89.00
2017-10-05T20:16:30.793Z,89.00
2017-10-05T20:22:15.716Z,88.70
2017-10-05T20:24:59.428Z,89.10
2017-10-05T20:27:34.052Z,88.60
2017-10-05T20:33:07.725Z,87.50
2017-10-05T20:35:36.800Z,86.70
2017-10-05T20:38:04.893Z,86.70
2017-10-05T20:40:33.141Z,87.30
2017-10-05T20:43:01.313Z,87.60
2017-10-05T20:45:29.483Z,87.80
2017-10-05T20:47:57.591Z,87.80
2017-10-05T20:50:25.717Z,88.10
2017-10-05T20:52:54.568Z,88.50
2017-10-05T20:55:22.776Z,90.00
2017-10-05T20:57:50.967Z,88.70
2017-10-05T21:00:19.126Z,89.50
2017-10-05T21:02:48.147Z,89.20
2017-10-05T21:05:16.281Z,89.30
2017-10-05T21:07:45.494Z,89.90
2017-10-05T21:10:13.696Z,89.70
2017-10-05T21:12:41.810Z,89.60
2017-10-05T21:15:10.096Z,90.00
2017-10-05T21:17:38.993Z,90.10
2017-10-05T21:20:07.114Z,90.20
2017-10-05T21:22:35.196Z,90.20
2017-10-05T21:25:03.371Z,90.20
2017-10-05T21:27:32.232Z,89.70
2017-10-05T21:30:00.353Z,89.70
2017-10-05T21:32:28.499Z,89.50
2017-10-05T21:37:57.519Z,90.40
2017-10-05T21:40:25.752Z,90.10
2017-10-05T21:42:57.637Z,89.90
2017-10-05T21:45:30.502Z,90.10
2017-10-05T21:47:58.690Z,90.20
2017-10-05T21:50:26.834Z,89.70
2017-10-05T21:52:55.716Z,90.00
2017-10-05T21:55:23.828Z,90.00
2017-10-05T21:57:52.745Z,90.00
2017-10-05T22:00:21.794Z,90.00
2017-10-05T22:02:50.654Z,90.00
2017-10-05T22:05:18.773Z,90.00
2017-10-05T22:07:46.891Z,89.20
2017-10-05T22:10:14.989Z,89.50
2017-10-05T22:12:43.066Z,88.90
2017-10-05T22:15:12.864Z,89.30
2017-10-05T22:17:40.945Z,89.20
2017-10-05T22:20:09.045Z,89.40
2017-10-05T22:22:37.132Z,90.00
2017-10-05T22:25:05.230Z,89.10
2017-10-05T22:27:33.339Z,88.60
2017-10-05T22:30:01.452Z,89.40
2017-10-05T22:32:29.526Z,88.20
2017-10-05T22:34:58.540Z,88.50
2017-10-05T22:37:26.618Z,89.50
2017-10-05T22:39:54.721Z,88.70
2017-10-05T22:42:22.815Z,89.00
2017-10-05T22:44:50.926Z,88.70
2017-10-05T22:47:19.022Z,89.00
2017-10-05T22:49:47.137Z,89.20
2017-10-05T22:52:15.210Z,89.10
2017-10-05T22:54:43.347Z,89.10
2017-10-05T22:57:11.444Z,89.40
2017-10-05T22:59:39.558Z,89.50
2017-10-05T23:02:07.661Z,90.30
2017-10-05T23:04:35.785Z,89.80
2017-10-05T23:07:04.944Z,90.00
2017-10-05T23:09:33.817Z,90.30
2017-10-05T23:12:01.913Z,90.20
2017-10-05T23:14:30.031Z,90.20
2017-10-05T23:16:58.117Z,90.20
2017-10-05T23:19:26.232Z,90.00
2017-10-05T23:21:54.333Z,90.30
2017-10-05T23:24:22.448Z,90.40
2017-10-05T23:26:50.544Z,90.20
2017-10-05T23:29:18.639Z,90.20
2017-10-05T23:31:46.752Z,90.10
2017-10-05T23:34:14.848Z,90.60
2017-10-05T23:36:43.710Z,90.30
2017-10-05T23:39:11.810Z,90.30
2017-10-05T23:41:39.893Z,90.00
2017-10-05T23:44:08.740Z,90.00
2017-10-05T23:46:36.843Z,89.90
2017-10-05T23:49:04.941Z,90.20
2017-10-05T23:51:33.802Z,90.10
2017-10-05T23:54:01.900Z,90.10
2017-10-05T23:56:30.197Z,90.00
2017-10-05T23:58:58.302Z,90.30
